Werte bis 5 Uhr SommerzeitDiagramme Wüstensachsen: Tagesdaten Monatsdaten WindroseCSV-Datei: Wuestensachsen20.csv

Wetterdaten 2020 Station: Wüstensachsen
Temperaturen in °C relative Nieder- Global- Wind Wind Wind- Sonnen-
Datum Boden Boden Luft Luft Luft Luft Feuchte schlag strahlung max richtung schein
20 cm 5 cm 20 cm 2 m 2 m max 2 m min % mm W/m2*d m/s m/s ° h

07.08.2020 0,0 17,7 17,3 18,9 20,0 17,8 42 0,0 0 0,0 0,0 --- ---
06.08.2020 0,0 17,8 19,8 20,5 28,1 13,2 42 0,0 6397 0,0 0,0 --- 8,6
05.08.2020 0,0 17,0 17,9 18,4 24,9 12,7 45 0,0 5694 0,0 0,0 --- 8,6
04.08.2020 0,0 16,8 14,2 14,5 21,6 9,8 62 0,0 5651 0,0 0,0 --- 11,5
03.08.2020 0,0 17,1 14,2 14,4 19,0 10,7 72 0,0 3929 0,0 0,0 --- 9,7
02.08.2020 0,0 18,4 18,0 18,4 22,5 14,0 74 0,0 3015 0,0 0,0 --- 7,2
01.08.2020 0,0 19,0 22,5 23,2 32,1 17,2 48 0,0 5279 0,0 0,0 --- 7,4
31.07.2020 0,0 18,2 21,3 22,1 30,8 14,3 43 0,0 6579 0,0 0,0 --- 8,7
30.07.2020 0,0 17,2 17,4 18,1 26,5 10,0 51 0,0 6527 0,0 0,0 --- 8,8
29.07.2020 0,0 17,2 15,8 16,1 22,5 9,5 53 0,0 6675 0,0 0,0 --- 8,8
28.07.2020 0,0 17,6 20,4 20,5 23,3 14,2 47 0,0 4488 0,0 0,0 --- 11,1
27.07.2020 0,0 16,6 18,0 18,5 24,9 11,1 54 0,0 4778 0,5 4,0 158 10,8
26.07.2020 0,0 17,3 17,2 17,3 21,7 14,1 71 5,5 3967 1,3 7,5 224 9,5
25.07.2020 0,0 17,3 18,1 18,3 24,2 13,0 60 0,0 5234 0,9 4,8 213 10,1
24.07.2020 0,0 17,2 18,3 18,6 24,5 13,4 48 0,0 5243 0,8 6,1 241 9,4
23.07.2020 0,0 16,5 15,2 15,7 23,3 8,5 58 0,0 6716 0,9 4,0 92 8,8
22.07.2020 0,0 16,4 14,5 15,3 23,0 8,3 52 0,0 6925 0,9 3,5 90 9,1
21.07.2020 0,0 17,0 15,1 15,3 22,0 10,1 59 0,0 7244 0,9 4,8 35 9,5
20.07.2020 0,0 17,0 17,7 18,0 22,7 12,2 60 0,2 5018 1,0 4,9 337 8,8
19.07.2020 0,0 16,6 18,4 19,3 25,5 13,5 50 0,0 4890 0,6 3,2 195 11,2
18.07.2020 0,0 15,7 15,3 16,0 24,8 10,1 59 0,0 4843 0,8 2,8 146 9,0
17.07.2020 0,0 15,8 13,9 14,1 21,0 9,2 69 0,0 5656 0,7 5,1 20 10,2
16.07.2020 0,0 15,0 12,2 12,2 14,4 10,6 83 1,4 2178 0,5 3,6 209 7,2
15.07.2020 0,0 16,4 13,0 13,0 16,4 10,2 90 14,6 2449 0,6 5,3 314 6,6
14.07.2020 0,0 17,0 18,3 18,7 24,6 12,9 43 0,0 6299 1,1 5,0 184 9,8
13.07.2020 0,0 16,1 16,2 16,5 24,3 10,1 46 0,0 6640 1,1 5,4 159 9,0
12.07.2020 0,0 15,3 13,0 13,6 20,7 7,2 55 0,0 5545 0,9 5,0 86 10,8
11.07.2020 0,0 15,9 12,7 12,7 17,8 8,4 64 0,0 5102 0,8 5,1 351 10,4
10.07.2020 0,0 16,8 17,7 17,9 21,9 11,6 60 0,0 3270 1,4 8,8 253 7,9
09.07.2020 0,0 16,1 16,9 16,9 23,9 11,4 76 2,0 4586 1,1 7,3 230 9,1
08.07.2020 0,0 14,8 11,7 11,7 13,5 10,3 86 4,0 2037 0,6 5,6 229 7,2
07.07.2020 0,0 15,4 12,6 12,5 18,8 7,0 63 0,1 6001 0,7 4,3 263 11,9
06.07.2020 0,0 16,1 13,3 13,2 17,9 8,7 67 0,0 3996 1,3 12,1 284 9,2
05.07.2020 0,0 16,9 18,0 18,0 23,0 14,8 72 0,2 3304 1,7 11,2 243 7,2
04.07.2020 0,0 16,5 16,6 16,6 22,5 11,0 55 0,0 4602 1,3 9,0 232 10,4
03.07.2020 0,0 16,7 14,8 14,8 20,3 10,3 68 0,1 5808 0,9 6,2 261 12,8
02.07.2020 0,0 17,6 17,0 16,8 23,5 12,3 72 6,4 5351 0,9 6,0 263 10,8
01.07.2020 0,0 16,9 18,5 18,4 25,2 13,4 65 0,0 3050 1,5 7,5 244 9,3
30.06.2020 0,0 16,1 14,0 14,0 19,0 9,8 57 0,0 5674 1,3 9,4 242 12,1
29.06.2020 0,0 17,4 14,6 14,4 19,8 9,5 70 3,8 5670 0,9 15,8 249 11,1
28.06.2020 0,0 18,4 17,4 17,4 22,1 12,2 70 3,2 3135 1,3 9,6 232 8,8
27.06.2020 0,0 18,8 20,4 20,4 25,8 15,1 63 0,0 6177 1,1 7,9 225 11,7
26.06.2020 0,0 18,2 19,1 19,1 25,2 13,5 56 0,0 6686 1,3 6,5 153 12,1
25.06.2020 0,0 17,6 17,1 17,3 23,5 12,1 66 0,0 5267 0,9 6,7 105 12,6
24.06.2020 0,0 17,4 17,5 17,7 23,7 11,9 48 0,0 7778 1,1 7,1 77 12,9
23.06.2020 0,0 17,0 16,6 17,2 23,3 10,7 50 0,0 7072 1,0 4,8 43 13,1
22.06.2020 0,0 17,0 17,1 17,2 21,0 12,9 65 0,0 4037 0,9 5,5 349 12,0
21.06.2020 0,0 16,8 16,3 16,5 23,1 9,8 57 0,0 7203 0,9 3,8 238 12,6
20.06.2020 0,0 16,6 15,5 15,3 20,2 11,7 69 0,9 4078 0,7 5,7 324 10,7
19.06.2020 0,0 15,4 15,0 15,2 20,5 10,8 68 0,2 4321 0,9 5,2 245 10,1
18.06.2020 0,0 15,3 13,6 13,7 17,6 11,3 86 5,4 1206 0,7 4,6 239 2,5
17.06.2020 0,0 15,3 15,4 15,8 22,0 11,4 83 7,2 4714 0,6 5,3 104 10,7
16.06.2020 0,0 14,5 14,6 15,1 19,0 11,7 83 0,3 2269 0,4 2,9 327 7,3
15.06.2020 0,0 14,1 13,0 13,0 14,3 11,9 94 11,2 1035 0,7 5,5 308 1,8
14.06.2020 0,0 14,8 15,8 15,8 18,5 13,8 92 25,2 1746 0,6 4,5 305 6,1
13.06.2020 0,0 14,4 20,0 20,2 27,5 14,4 65 0,0 6361 0,9 6,5 43 11,2
12.06.2020 0,0 12,9 17,4 17,7 24,6 10,8 66 0,0 7485 1,3 6,9 124 12,8
11.06.2020 0,0 11,7 11,7 11,7 17,4 9,6 91 3,9 2244 0,4 3,7 44 8,9
10.06.2020 0,0 11,7 11,4 11,2 15,1 9,2 83 5,3 1958 0,8 6,7 38 5,8
09.06.2020 0,0 11,3 11,2 11,5 15,4 7,5 74 2,8 2394 0,8 6,1 70 8,3
08.06.2020 0,0 11,4 11,2 11,6 17,5 5,9 59 0,0 4503 0,9 3,7 135 10,4
07.06.2020 0,0 11,4 11,4 11,3 15,0 8,0 69 0,0 5072 1,1 6,2 225 12,1
06.06.2020 0,0 10,9 8,5 8,5 13,0 4,8 83 3,3 4298 1,5 8,9 209 10,3
05.06.2020 0,0 12,0 8,4 8,2 12,9 5,8 86 10,8 2303 1,5 11,9 249 7,4
04.06.2020 0,0 13,1 13,2 13,2 15,8 8,8 80 9,7 1235 1,0 6,2 211 4,6
03.06.2020 0,0 13,7 17,5 17,8 24,2 13,4 49 1,8 4865 1,2 7,9 173 9,8
02.06.2020 0,0 12,9 16,4 17,1 24,4 10,0 46 0,0 7454 1,0 5,5 122 13,0
01.06.2020 0,0 12,0 14,5 15,2 22,2 7,4 52 0,0 8063 1,3 6,8 83 13,3
31.05.2020 0,0 11,1 10,6 10,9 17,0 4,7 60 0,0 5878 1,2 7,4 59 13,0
30.05.2020 0,0 11,1 10,6 11,0 15,8 7,1 51 0,0 5898 1,7 10,2 69 11,2
29.05.2020 0,0 11,6 11,2 11,7 18,0 5,3 47 0,0 7827 1,2 6,8 67 13,1
28.05.2020 0,0 12,4 12,1 12,1 16,8 7,7 56 0,0 8111 1,4 7,0 29 13,0
27.05.2020 0,0 11,4 12,9 13,7 20,4 7,4 54 0,0 7377 0,8 3,2 185 11,3
26.05.2020 0,0 11,1 9,3 9,9 16,2 4,0 68 0,0 4740 1,0 4,6 84 11,7
25.05.2020 0,0 11,8 10,9 11,0 15,8 6,9 73 0,6 5334 1,5 10,2 301 10,2
24.05.2020 0,0 11,3 8,8 8,7 14,1 5,5 82 2,1 3053 1,5 9,1 263 6,7
23.05.2020 0,0 12,8 10,3 10,2 15,5 7,8 87 7,7 2729 1,1 7,2 274 11,0
22.05.2020 0,0 13,1 17,3 17,6 21,7 11,7 59 4,8 2756 1,5 6,9 201 9,9
21.05.2020 0,0 12,4 14,5 14,8 22,5 7,7 57 0,0 7503 1,0 5,6 154 13,0
20.05.2020 0,0 12,5 13,4 13,7 18,1 8,5 73 0,0 2514 1,0 5,1 71 7,9
19.05.2020 0,0 12,0 14,5 15,2 21,1 8,9 54 0,0 5798 1,0 4,9 344 11,7
18.05.2020 0,0 11,0 12,9 13,4 19,7 4,8 52 0,0 6740 1,1 6,9 228 12,5
17.05.2020 0,0 10,2 9,3 10,0 16,6 3,6 57 0,0 6772 1,1 5,7 262 12,4
16.05.2020 0,0 9,3 8,4 9,1 17,0 1,3 53 0,0 7482 1,0 4,0 132 11,5
15.05.2020 0,0 8,7 7,1 7,7 14,1 2,4 54 0,0 6935 1,1 6,0 29 12,7
14.05.2020 0,0 8,4 5,7 5,8 11,1 0,0 72 0,0 4342 1,1 6,8 30 10,8
13.05.2020 0,0 7,5 5,8 6,3 11,9 1,1 56 0,0 4218 0,8 4,0 84 10,7
12.05.2020 0,0 7,0 2,3 3,0 8,9 -2,9 66 0,1 4533 0,5 5,1 264 12,3
11.05.2020 0,0 9,6 3,6 3,8 11,5 -0,4 95 14,3 1097 1,7 11,2 15 1,6
10.05.2020 0,0 12,1 15,1 15,2 22,2 10,3 70 1,6 2673 0,8 5,2 204 7,7
09.05.2020 0,0 11,3 14,2 14,6 20,4 9,6 46 0,0 5418 1,3 6,0 154 11,3
08.05.2020 0,0 10,8 14,2 15,2 21,0 10,2 39 0,0 6584 1,2 4,8 96 11,1
07.05.2020 0,0 8,9 10,3 11,5 19,0 3,2 44 0,0 7430 1,0 3,5 132 12,3
06.05.2020 0,0 7,9 6,2 7,1 14,3 0,1 51 0,0 7300 1,1 5,8 47 12,5
05.05.2020 0,0 7,9 4,8 5,4 11,0 0,2 59 0,0 6936 1,2 6,7 66 12,1
04.05.2020 0,0 9,0 8,2 8,6 13,7 3,4 72 0,6 1275 1,2 6,2 195 4,2
03.05.2020 0,0 8,7 7,4 7,6 12,9 3,7 74 0,0 3835 0,8 5,3 266 9,1
02.05.2020 0,0 8,4 5,4 5,3 8,1 1,8 93 9,4 2811 1,6 8,5 263 5,2
01.05.2020 0,0 8,9 6,7 6,8 10,1 3,9 89 16,5 2763 2,1 11,3 228 7,7
30.04.2020 0,0 9,6 8,7 8,7 11,6 6,1 87 8,4 2763 2,2 10,1 214 6,7
29.04.2020 0,0 10,0 10,5 10,6 15,1 8,1 74 0,0 3912 1,5 8,1 248 10,2
28.04.2020 0,0 9,9 11,2 12,2 15,9 8,5 63 1,3 2254 1,5 9,2 200 7,9
27.04.2020 0,0 9,9 12,4 13,8 19,6 8,1 35 0,0 5689 1,6 6,5 203 8,8
26.04.2020 0,0 9,2 9,6 10,3 17,3 3,9 47 0,0 5712 1,2 4,8 153 8,8
25.04.2020 0,0 9,5 7,5 7,7 13,7 2,6 58 0,0 6413 1,3 5,2 359 9,9
24.04.2020 0,0 10,0 13,0 13,9 18,5 9,4 38 0,0 5802 1,6 7,6 253 10,7
23.04.2020 0,0 9,0 11,3 12,1 19,6 4,4 38 0,0 6402 1,4 7,4 126 9,0
22.04.2020 0,0 8,6 11,1 11,2 18,3 5,3 36 0,0 6433 1,9 8,9 65 9,0
21.04.2020 0,0 8,0 10,1 9,8 16,9 3,5 37 0,0 6154 3,6 13,4 68 9,0
20.04.2020 0,0 7,9 8,2 8,1 15,4 2,8 39 0,0 5944 5,2 17,6 70 8,9
19.04.2020 0,0 9,3 9,4 9,1 13,5 6,3 69 0,0 2459 3,7 13,0 70 7,0
18.04.2020 0,0 9,7 14,9 14,5 20,3 10,2 59 0,0 2320 1,6 7,8 202 8,3
17.04.2020 0,0 9,1 14,5 12,8 19,6 8,7 49 0,0 3853 1,5 6,4 63 8,2
16.04.2020 0,0 8,2 13,7 12,4 19,8 7,1 41 0,0 5687 1,5 9,3 222 8,7
15.04.2020 0,0 6,6 7,4 6,1 17,2 -0,8 54 0,0 5275 1,7 7,6 170 9,4
14.04.2020 0,0 6,2 1,9 1,6 7,8 -2,0 61 0,0 4868 1,9 9,6 304 8,4
13.04.2020 0,0 8,1 7,4 6,7 13,1 -0,2 60 0,0 2561 2,6 12,9 295 7,1
12.04.2020 0,0 9,0 14,4 13,5 20,3 7,9 41 0,0 3999 1,8 10,9 229 8,5
11.04.2020 0,0 8,3 10,7 9,5 18,7 3,5 44 0,0 5454 1,5 5,0 121 8,7
10.04.2020 0,0 8,7 11,4 10,4 17,1 6,4 58 0,0 5179 1,7 9,5 72 8,5
09.04.2020 0,0 8,8 14,5 12,7 20,1 8,7 44 0,0 4314 1,4 6,6 66 8,0
08.04.2020 0,0 8,4 14,4 13,4 20,8 9,3 43 0,0 5206 1,2 7,3 109 8,6
07.04.2020 0,0 7,5 13,3 11,9 19,0 8,1 52 0,0 3518 2,1 7,3 100 8,5
06.04.2020 0,0 6,5 12,5 11,6 19,6 4,1 38 0,0 5216 1,7 9,9 223 8,6
05.04.2020 0,0 5,2 8,6 8,5 15,4 1,8 52 0,0 5125 2,0 10,2 139 8,6
04.04.2020 0,0 4,3 5,2 4,3 12,1 -0,1 70 0,0 3350 1,5 6,9 129 9,0
03.04.2020 0,0 3,8 3,8 3,7 8,2 0,9 78 0,0 2008 2,6 9,7 262 6,6
02.04.2020 0,0 3,2 4,0 2,9 9,9 -1,2 47 0,0 4983 1,8 9,3 243 8,5
01.04.2020 0,0 2,4 1,2 0,3 8,5 -5,2 47 0,0 4963 1,3 9,8 20 8,7
31.03.2020 0,0 2,9 -0,6 -0,7 3,5 -3,5 67 0,0 3572 2,1 11,2 53 8,7
30.03.2020 0,0 2,9 -1,9 -2,1 3,9 -7,9 64 0,2 4512 1,4 7,3 13 8,0
29.03.2020 0,0 3,9 0,4 0,4 4,1 -2,9 89 0,0 1193 3,6 12,7 8 3,3
28.03.2020 0,0 4,8 7,9 7,2 13,4 2,7 54 0,0 4504 2,5 8,9 78 8,4
27.03.2020 0,0 3,4 7,5 7,3 15,0 1,9 51 0,0 4379 4,3 12,3 79 8,2
26.03.2020 0,0 1,7 2,1 2,0 8,7 -2,9 52 0,0 4149 4,1 13,2 68 7,8
25.03.2020 0,0 1,3 0,9 0,7 7,9 -4,6 38 0,0 4650 3,5 14,4 95 8,0
24.03.2020 0,0 1,4 -0,7 -0,9 6,3 -5,5 45 0,0 4566 1,9 8,7 129 8,1
23.03.2020 0,0 1,6 -1,6 -1,7 5,0 -6,1 47 0,0 4518 2,4 9,0 123 8,2
22.03.2020 0,0 2,3 -1,0 -1,0 4,4 -4,4 55 0,0 4509 4,8 14,6 77 8,2
21.03.2020 0,0 4,3 0,7 0,5 2,8 -2,2 84 1,4 1244 5,9 18,2 49 4,5
20.03.2020 0,0 6,6 6,5 6,2 11,1 1,6 89 0,0 1327 3,6 11,5 76 3,9
19.03.2020 0,0 6,6 9,7 8,3 14,7 5,5 69 0,0 2755 1,2 5,8 121 7,5
18.03.2020 0,0 6,2 9,3 8,3 14,0 5,8 73 0,0 3720 2,2 10,9 208 8,1
17.03.2020 0,0 6,3 9,2 8,6 12,4 6,1 73 0,0 2572 1,3 7,0 224 7,4
16.03.2020 0,0 4,9 9,5 8,6 14,9 4,3 62 0,0 3619 1,3 6,6 222 8,0
15.03.2020 0,0 3,5 5,0 4,8 9,6 0,4 67 0,0 3670 2,1 10,9 170 8,1
14.03.2020 0,0 3,5 2,9 2,7 7,1 -0,9 82 0,2 2863 0,9 3,9 140 7,6
13.03.2020 0,0 3,6 2,0 1,5 5,4 -1,1 90 2,4 2056 2,6 16,8 349 4,8
12.03.2020 0,0 5,8 0,0 6,1 9,3 1,8 82 1,6 2512 3,2 14,7 244 6,8
11.03.2020 0,0 6,0 0,0 9,1 9,7 8,5 100 10,9 1159 3,8 11,8 261 3,5
10.03.2020 0,0 3,0 0,0 3,8 8,6 1,0 100 8,6 200 3,1 7,9 234 ---
09.03.2020 0,0 3,7 0,0 3,9 7,0 1,8 100 7,6 2071 1,8 6,3 247 5,8
08.03.2020 0,0 2,3 0,0 3,6 6,6 -0,4 100 0,0 1370 2,0 5,7 201 4,3
07.03.2020 0,0 1,8 0,0 1,0 3,7 -0,1 100 1,2 764 2,0 5,1 270 2,3
06.03.2020 0,0 2,1 0,0 2,3 4,8 0,6 100 8,0 501 2,8 5,0 242 0,8
05.03.2020 0,0 1,5 0,0 1,2 3,6 -0,6 100 12,5 1313 2,4 5,3 148 4,8
04.03.2020 0,0 1,3 0,0 0,4 2,9 -1,3 100 0,7 766 1,7 5,0 232 2,1
03.03.2020 0,0 2,5 0,0 1,3 3,8 -0,8 100 4,1 1385 1,6 5,0 271 5,0
02.03.2020 0,0 2,0 0,0 2,7 5,9 -0,5 100 5,6 2174 2,1 5,5 179 6,5
01.03.2020 0,0 1,5 0,0 3,8 6,7 2,0 100 1,7 1539 2,5 6,9 215 4,8
29.02.2020 0,0 1,0 0,0 4,1 8,0 -0,4 100 19,0 1572 3,1 8,6 204 5,8
28.02.2020 0,0 1,5 0,0 -0,6 2,0 -1,8 100 2,3 1141 1,8 5,0 257 4,6
27.02.2020 0,0 1,8 0,0 -0,8 1,4 -1,8 100 0,2 512 2,0 5,0 245 0,7
26.02.2020 0,0 2,5 0,0 -0,4 2,4 -1,3 98 0,8 443 3,0 5,3 261 ---
25.02.2020 0,0 4,2 0,0 4,9 6,3 1,8 96 7,4 1680 3,2 11,0 287 5,7
24.02.2020 0,0 3,5 0,0 3,3 6,2 -1,7 94 0,8 979 3,3 12,8 347 2,0
23.02.2020 0,0 4,0 0,0 6,1 7,9 3,0 98 13,1 437 3,8 7,7 261 0,2
22.02.2020 0,0 2,3 0,0 4,3 8,6 1,0 73 0,0 1571 3,5 13,1 246 5,2
21.02.2020 0,0 2,2 0,0 1,4 3,5 -0,5 88 6,3 1820 2,8 5,3 265 5,4
20.02.2020 0,0 1,9 0,0 2,2 4,2 -0,2 93 4,8 1266 2,4 5,2 230 4,8
19.02.2020 0,0 2,4 0,0 1,4 2,6 -0,3 88 5,9 1443 2,7 5,1 259 5,5
18.02.2020 0,0 3,0 0,0 2,4 4,0 0,2 91 4,0 1803 2,9 5,7 250 6,0
17.02.2020 0,0 4,2 0,0 4,7 12,6 1,7 91 7,7 1074 2,7 13,7 247 4,8
16.02.2020 0,0 3,5 0,0 10,1 13,4 7,0 59 0,0 1374 3,8 15,2 213 4,3
15.02.2020 0,0 2,0 0,0 4,7 7,9 2,2 83 0,0 1975 1,9 6,4 183 6,9
14.02.2020 0,0 1,3 0,0 1,9 2,6 0,7 97 7,5 1071 1,9 5,0 269 3,9
13.02.2020 0,0 1,4 0,0 0,1 1,7 -1,4 97 3,1 476 2,7 5,9 203 0,3
12.02.2020 0,0 1,5 0,0 -0,2 2,2 -1,9 90 0,2 2174 2,9 5,6 255 5,8
11.02.2020 0,0 1,8 0,0 0,1 2,5 -2,0 91 2,8 1334 3,3 6,2 264 3,6
10.02.2020 0,0 3,4 0,0 4,1 9,7 0,4 89 19,3 1151 3,5 11,3 253 3,1
09.02.2020 0,0 2,1 0,0 6,2 9,4 3,4 78 0,0 1464 3,6 10,2 212 5,4
08.02.2020 0,0 1,4 0,0 2,5 6,8 -2,5 80 3,0 1277 1,9 5,9 165 4,6
07.02.2020 0,0 1,8 0,0 -0,4 2,0 -1,4 89 0,7 1821 1,5 5,7 13 5,4
06.02.2020 0,0 2,0 0,0 -0,6 1,2 -2,9 87 0,4 771 0,9 3,9 270 1,6
05.02.2020 0,0 2,5 0,0 0,0 3,8 -2,4 80 2,9 2167 1,1 4,4 309 6,4
04.02.2020 0,0 3,3 0,0 0,3 3,9 -0,4 98 4,4 1003 1,3 5,0 282 3,3
03.02.2020 0,0 4,8 0,0 5,9 7,4 3,9 92 5,7 779 2,9 6,4 264 2,5
02.02.2020 0,0 4,6 0,0 5,9 9,2 2,6 92 5,5 390 3,2 9,0 256 ---
01.02.2020 0,0 5,1 0,0 8,1 8,9 5,7 95 13,0 329 3,3 7,9 247 ---
31.01.2020 0,0 3,4 0,0 8,3 9,8 5,0 95 1,2 1550 3,7 12,6 257 5,8
30.01.2020 0,0 0,9 0,0 2,5 5,0 -0,4 92 3,8 1144 3,0 5,7 243 4,3
29.01.2020 0,0 0,6 0,0 -0,4 0,2 -1,2 96 0,0 714 2,9 6,0 264 2,0
28.01.2020 0,0 0,5 0,0 1,4 3,4 -1,0 96 8,6 820 2,9 5,6 240 2,7
27.01.2020 0,0 0,3 0,0 3,4 4,9 2,0 96 5,9 539 2,6 5,1 219 1,1
26.01.2020 0,0 0,2 0,0 3,8 6,8 1,9 86 0,0 422 1,4 5,0 183 ---
25.01.2020 0,0 0,2 0,0 -0,3 6,0 -6,5 82 0,6 314 0,5 3,9 146 ---
24.01.2020 0,0 0,5 0,0 -2,7 3,6 -6,6 89 0,4 270 0,6 3,9 143 ---
23.01.2020 0,0 0,6 0,0 -1,7 -0,4 -4,3 95 0,0 457 1,0 4,8 124 ---
22.01.2020 0,0 0,7 0,0 -0,2 3,4 -2,7 68 1,2 723 0,9 3,5 96 2,5
21.01.2020 0,0 1,1 0,0 -1,1 5,0 -4,5 74 0,4 1597 1,0 3,0 149 5,8
20.01.2020 0,0 2,0 0,0 -0,6 3,5 -3,8 90 0,2 737 0,7 3,5 130 2,4
19.01.2020 0,0 2,2 0,0 -0,4 0,4 -1,4 99 0,0 571 0,7 3,2 350 1,7
18.01.2020 0,0 3,1 0,0 1,3 4,3 -1,0 95 0,1 573 2,1 5,0 265 1,2
17.01.2020 0,0 3,2 0,0 4,9 7,2 2,0 88 0,7 997 2,0 6,7 213 3,8
16.01.2020 0,0 4,0 0,0 6,6 9,4 3,4 88 0,0 1170 1,9 6,9 188 4,2
15.01.2020 0,0 3,5 0,0 7,6 9,3 6,2 68 0,0 1154 3,2 8,9 220 4,1
14.01.2020 0,0 2,8 0,0 5,6 7,6 2,9 79 0,0 565 3,0 6,1 203 0,8
13.01.2020 0,0 2,3 0,0 2,3 3,9 1,6 98 0,5 583 1,6 5,0 198 1,6
12.01.2020 0,0 1,6 0,0 0,2 1,9 -1,2 94 0,1 557 2,1 5,2 220 1,0
11.01.2020 0,0 3,0 0,0 0,7 3,2 -0,9 89 0,1 1072 1,3 4,8 248 3,9
10.01.2020 0,0 4,6 0,0 5,1 7,5 1,6 96 4,2 695 2,9 5,9 257 2,1
09.01.2020 0,0 4,0 0,0 7,3 8,7 5,3 99 11,7 397 2,4 7,4 214 ---
08.01.2020 0,0 2,0 0,0 3,8 5,5 1,2 95 2,2 157 1,9 5,0 204 ---
07.01.2020 0,0 1,1 0,0 0,9 2,7 -1,5 97 0,4 446 1,6 5,0 245 0,4
06.01.2020 0,0 1,6 0,0 1,8 4,8 0,4 85 0,0 806 1,0 5,1 198 2,9
05.01.2020 0,0 1,3 0,0 0,7 2,1 -1,3 96 0,2 260 0,7 3,7 263 ---
04.01.2020 0,0 1,0 0,0 1,1 5,0 -0,1 99 4,2 434 2,7 5,8 281 0,5
03.01.2020 0,0 0,4 0,0 3,2 5,0 1,2 99 2,3 202 2,8 6,0 241 ---
02.01.2020 0,0 0,3 0,0 1,6 5,4 -1,5 72 0,0 179 1,4 5,0 185 ---
01.01.2020 0,0 0,5 0,0 0,7 7,2 -3,6 64 0,0 1267 1,1 5,0 140 5,1

Mittelwerte (Temperaturen, Strahlung, rel. Feuchte, Wind), Summe (Regen) für 2020
0,0 8,5 7,9 8,8 71 453 3.430 1,7

Landesbetrieb Landwirtschaft Hessen 2009

      Werte bis 5 Uhr SommerzeitCSV-Datei: Wuestensachsen20.csvDiagramm: Wuestensachsen